createdAt,value
2022-08-25T00:01:37.781Z,72.35
2022-08-25T00:04:07.535Z,91.07
2022-08-25T00:06:34.730Z,80.82
2022-08-25T00:09:01.925Z,100.20
2022-08-25T00:11:30.658Z,90.45
2022-08-25T00:13:59.376Z,82.95
2022-08-25T00:16:26.617Z,71.93
2022-08-25T00:18:58.155Z,95.65
2022-08-25T00:21:25.451Z,88.22
2022-08-25T00:23:52.778Z,96.00
2022-08-25T00:26:19.927Z,86.50
2022-08-25T00:28:47.099Z,87.50
2022-08-25T00:31:20.158Z,86.57
2022-08-25T00:33:47.628Z,76.35
2022-08-25T00:36:15.677Z,90.60
2022-08-25T00:38:43.396Z,94.35
2022-08-25T00:41:11.372Z,86.18
2022-08-25T00:43:41.363Z,97.13
2022-08-25T00:46:11.516Z,104.85
2022-08-25T00:48:38.758Z,111.65
2022-08-25T00:51:05.977Z,85.57
2022-08-25T00:53:33.177Z,96.97
2022-08-25T00:56:00.329Z,88.13
2022-08-25T00:58:27.959Z,112.05
2022-08-25T01:00:56.738Z,123.97
2022-08-25T01:03:26.168Z,109.65
2022-08-25T01:06:00.882Z,85.63
2022-08-25T01:08:29.130Z,120.32
2022-08-25T01:10:57.189Z,133.88
2022-08-25T01:13:29.902Z,99.50
2022-08-25T01:15:57.178Z,127.15
2022-08-25T01:18:24.455Z,128.65
2022-08-25T01:20:52.789Z,118.70
2022-08-25T01:23:20.098Z,117.97
2022-08-25T01:26:07.700Z,113.63
2022-08-25T01:28:34.922Z,99.75
2022-08-25T01:31:02.124Z,92.95
2022-08-25T01:33:29.403Z,102.40
2022-08-25T01:35:56.579Z,91.80
2022-08-25T01:38:23.813Z,113.95
2022-08-25T01:40:51.066Z,108.85
2022-08-25T01:43:22.671Z,100.15
2022-08-25T01:45:50.279Z,87.85
2022-08-25T01:48:17.613Z,99.15
2022-08-25T01:50:44.755Z,88.72
2022-08-25T01:53:19.418Z,80.65
2022-08-25T01:55:54.200Z,108.85
2022-08-25T01:58:22.422Z,85.90
2022-08-25T02:00:49.835Z,81.45
2022-08-25T02:03:18.899Z,102.50
2022-08-25T02:05:48.064Z,97.45
2022-08-25T02:08:15.907Z,82.93
2022-08-25T02:10:43.091Z,82.97
2022-08-25T02:13:10.366Z,80.70
2022-08-25T02:15:41.015Z,76.50
2022-08-25T02:18:08.218Z,72.45
2022-08-25T02:20:35.482Z,74.53
2022-08-25T02:23:02.617Z,75.05
2022-08-25T02:25:29.780Z,84.10
2022-08-25T02:27:57.034Z,77.30
2022-08-25T02:30:24.284Z,74.68
2022-08-25T02:32:52.082Z,70.97
2022-08-25T02:35:19.281Z,71.40
2022-08-25T02:37:46.437Z,80.85
2022-08-25T02:40:13.712Z,69.40
2022-08-25T02:42:42.661Z,69.28
2022-08-25T02:45:10.196Z,71.55
2022-08-25T02:47:37.494Z,69.82
2022-08-25T02:50:05.595Z,73.38
2022-08-25T02:52:32.765Z,80.28
2022-08-25T02:54:59.902Z,48.00
2022-08-25T02:57:27.439Z,52.90
2022-08-25T02:59:54.816Z,46.95
2022-08-25T03:02:21.990Z,40.55
2022-08-25T03:04:49.218Z,45.88
2022-08-25T03:07:17.665Z,58.35
2022-08-25T03:09:45.266Z,43.90
2022-08-25T03:12:12.608Z,74.28
2022-08-25T03:14:40.041Z,53.65
2022-08-25T03:17:08.802Z,61.53
2022-08-25T03:19:36.226Z,96.38
2022-08-25T03:22:03.488Z,54.38
2022-08-25T03:24:30.650Z,45.03
2022-08-25T03:26:57.862Z,45.05
2022-08-25T03:29:29.931Z,49.90
2022-08-25T03:31:58.311Z,87.85
2022-08-25T03:34:25.752Z,77.10
2022-08-25T03:36:53.251Z,75.22
2022-08-25T03:39:20.818Z,56.58
2022-08-25T03:41:48.028Z,49.63
2022-08-25T03:44:15.233Z,67.15
2022-08-25T03:46:43.530Z,61.38
2022-08-25T03:49:11.746Z,58.40
2022-08-25T03:51:40.759Z,96.45
2022-08-25T03:54:07.969Z,72.93
2022-08-25T03:56:35.533Z,86.13
2022-08-25T03:59:03.557Z,74.10
2022-08-25T04:01:30.844Z,74.25
2022-08-25T04:03:58.022Z,96.63
2022-08-25T04:06:25.174Z,58.70
2022-08-25T04:08:52.814Z,86.63
2022-08-25T04:11:21.309Z,92.85
2022-08-25T04:13:48.869Z,80.93
2022-08-25T04:16:17.236Z,109.15
2022-08-25T04:18:44.431Z,158.57
2022-08-25T04:21:11.968Z,115.70
2022-08-25T04:23:40.697Z,92.03
2022-08-25T04:26:14.916Z,126.13
2022-08-25T04:28:42.139Z,118.65
2022-08-25T04:31:09.899Z,108.78
2022-08-25T04:33:38.157Z,116.90
2022-08-25T04:36:11.464Z,107.35
2022-08-25T04:38:39.614Z,99.35
2022-08-25T04:41:07.097Z,94.90
2022-08-25T04:43:34.623Z,84.78
2022-08-25T04:46:04.856Z,85.32
2022-08-25T04:48:32.778Z,82.90
2022-08-25T04:50:59.953Z,78.35
2022-08-25T04:53:27.121Z,77.50
2022-08-25T04:55:54.342Z,64.05
2022-08-25T04:58:21.483Z,65.45
2022-08-25T05:00:48.650Z,74.00
2022-08-25T05:03:15.854Z,77.63
2022-08-25T05:05:43.070Z,96.30
2022-08-25T05:08:10.378Z,60.35
2022-08-25T05:10:41.229Z,57.90
2022-08-25T05:13:09.621Z,65.88
2022-08-25T05:15:52.123Z,73.88
2022-08-25T05:18:19.505Z,70.95
2022-08-25T05:20:46.830Z,64.35
2022-08-25T05:23:15.552Z,67.10
2022-08-25T05:25:42.933Z,67.47
2022-08-25T05:28:10.074Z,64.70
2022-08-25T05:30:40.777Z,66.10
2022-08-25T05:33:07.978Z,61.75
2022-08-25T05:35:36.182Z,58.85
2022-08-25T05:38:04.380Z,49.83
2022-08-25T05:40:31.964Z,44.30
2022-08-25T05:42:59.259Z,50.80
2022-08-25T05:45:26.539Z,44.47
2022-08-25T05:47:53.745Z,45.30
2022-08-25T05:50:20.899Z,40.67
2022-08-25T05:52:48.062Z,43.85
2022-08-25T05:55:15.623Z,49.63
2022-08-25T05:57:42.771Z,46.75
2022-08-25T06:00:10.201Z,43.45
2022-08-25T06:02:41.345Z,43.22
2022-08-25T06:05:12.666Z,44.05
2022-08-25T06:07:39.869Z,37.88
2022-08-25T06:10:07.662Z,41.25
2022-08-25T06:12:36.195Z,45.90
2022-08-25T06:15:03.696Z,45.05
2022-08-25T06:17:30.897Z,42.38
2022-08-25T06:19:58.101Z,36.00
2022-08-25T06:22:28.098Z,31.25
2022-08-25T06:24:56.007Z,29.88
2022-08-25T06:27:23.243Z,32.65
2022-08-25T06:29:50.415Z,31.98
2022-08-25T06:32:22.245Z,30.00
2022-08-25T06:34:49.756Z,29.55
2022-08-25T06:37:17.058Z,31.00
2022-08-25T06:39:44.206Z,27.80
2022-08-25T06:42:11.451Z,27.85
2022-08-25T06:44:38.609Z,30.33
2022-08-25T06:47:05.982Z,30.00
2022-08-25T06:49:36.248Z,25.00
2022-08-25T06:52:03.764Z,20.80
2022-08-25T06:54:30.980Z,21.25
2022-08-25T06:56:58.174Z,20.83
2022-08-25T06:59:25.609Z,20.85
2022-08-25T07:01:59.571Z,21.95
2022-08-25T07:04:26.917Z,23.67
2022-08-25T07:06:54.523Z,24.27
2022-08-25T07:09:21.715Z,22.85
2022-08-25T07:11:48.974Z,20.23
2022-08-25T07:14:16.572Z,20.67
2022-08-25T07:16:48.805Z,19.15
2022-08-25T07:19:20.578Z,24.35
2022-08-25T07:21:48.618Z,22.73
2022-08-25T07:24:16.514Z,25.55
2022-08-25T07:26:43.785Z,25.17
2022-08-25T07:29:12.445Z,22.17
2022-08-25T07:31:39.833Z,21.58
2022-08-25T07:34:26.097Z,20.27
2022-08-25T07:36:53.711Z,27.42
2022-08-25T07:39:22.005Z,25.63
2022-08-25T07:41:52.387Z,23.77
2022-08-25T07:44:19.853Z,24.92
2022-08-25T07:46:47.109Z,24.85
2022-08-25T07:49:16.616Z,24.23
2022-08-25T07:52:03.777Z,27.40
2022-08-25T07:54:33.814Z,23.13
2022-08-25T07:57:02.339Z,23.60
2022-08-25T07:59:29.517Z,23.20
2022-08-25T08:01:56.790Z,25.77
2022-08-25T08:04:24.752Z,23.88
2022-08-25T08:06:51.895Z,24.92
2022-08-25T08:09:19.093Z,28.02
2022-08-25T08:11:54.372Z,20.13
2022-08-25T08:14:21.782Z,26.52
2022-08-25T08:16:49.560Z,23.67
2022-08-25T08:19:17.223Z,26.80
2022-08-25T08:21:44.475Z,28.17
2022-08-25T08:24:31.192Z,20.60
2022-08-25T08:26:59.375Z,19.95
2022-08-25T08:29:26.918Z,19.63
2022-08-25T08:31:54.120Z,21.83
2022-08-25T08:34:24.929Z,16.77
2022-08-25T08:36:52.624Z,17.45
2022-08-25T08:39:19.808Z,20.40
2022-08-25T08:42:11.238Z,25.27
2022-08-25T08:44:43.113Z,20.08
2022-08-25T08:47:11.484Z,19.90
2022-08-25T08:49:50.701Z,19.52
2022-08-25T08:52:18.398Z,21.13
2022-08-25T08:54:45.842Z,19.58
2022-08-25T08:57:17.343Z,19.83
2022-08-25T08:59:48.735Z,23.40
2022-08-25T09:02:38.934Z,18.00
2022-08-25T09:05:06.698Z,19.48
2022-08-25T09:07:35.950Z,18.55
2022-08-25T09:10:04.901Z,19.52
2022-08-25T09:12:33.438Z,24.60
2022-08-25T09:15:00.734Z,22.15
2022-08-25T09:17:37.429Z,26.25
2022-08-25T09:20:30.158Z,19.45
2022-08-25T09:23:03.712Z,21.80
2022-08-25T09:25:54.106Z,21.17
2022-08-25T09:28:21.827Z,25.48
2022-08-25T09:30:49.007Z,18.38
2022-08-25T09:33:16.386Z,20.50
2022-08-25T09:35:48.407Z,20.85
2022-08-25T09:38:16.956Z,19.70
2022-08-25T09:40:47.361Z,19.15
2022-08-25T09:43:20.456Z,16.55
2022-08-25T09:45:49.486Z,21.08
2022-08-25T09:48:24.016Z,22.95
2022-08-25T09:50:51.848Z,29.45
2022-08-25T09:53:21.731Z,24.30
2022-08-25T09:55:59.853Z,17.58
2022-08-25T09:58:27.487Z,24.05
2022-08-25T10:01:06.413Z,23.77
2022-08-25T10:03:36.335Z,26.33
2022-08-25T10:06:03.994Z,21.48
2022-08-25T10:08:32.625Z,20.98
2022-08-25T10:11:00.300Z,28.83
2022-08-25T10:13:34.970Z,21.73
2022-08-25T10:16:24.472Z,20.95
2022-08-25T10:19:06.704Z,26.00
2022-08-25T10:21:34.863Z,19.05
2022-08-25T10:24:03.042Z,20.00
2022-08-25T10:26:39.210Z,16.33
2022-08-25T10:29:18.213Z,24.30
2022-08-25T10:31:58.510Z,25.38
2022-08-25T10:34:35.870Z,18.98
2022-08-25T10:37:09.468Z,18.17
2022-08-25T10:39:41.675Z,21.05
2022-08-25T10:42:29.641Z,18.05
2022-08-25T10:45:19.512Z,23.08
2022-08-25T10:47:54.864Z,21.80
2022-08-25T10:50:30.093Z,22.80
2022-08-25T10:53:06.621Z,105.47
2022-08-25T10:55:40.257Z,27.13
2022-08-25T10:58:38.963Z,25.63
2022-08-25T11:01:15.532Z,20.95
2022-08-25T11:03:54.151Z,22.95
2022-08-25T11:06:22.200Z,24.63
2022-08-25T11:08:53.492Z,20.30
2022-08-25T11:11:21.789Z,21.38
2022-08-25T11:13:51.626Z,22.85
2022-08-25T11:16:20.348Z,18.73
2022-08-25T11:18:50.772Z,23.92
2022-08-25T11:21:22.792Z,23.13
2022-08-25T11:23:52.565Z,21.95
2022-08-25T11:26:20.723Z,19.00
2022-08-25T11:29:11.469Z,23.77
2022-08-25T11:31:40.570Z,17.30
2022-08-25T11:34:10.583Z,19.92
2022-08-25T11:36:40.563Z,19.20
2022-08-25T11:39:16.938Z,19.35
2022-08-25T11:42:02.888Z,20.77
2022-08-25T11:44:53.022Z,22.23
2022-08-25T11:47:43.235Z,26.52
2022-08-25T11:50:30.315Z,19.90
2022-08-25T11:53:26.638Z,23.23
2022-08-25T11:55:56.150Z,20.52
2022-08-25T11:58:42.124Z,20.83
2022-08-25T12:01:10.295Z,29.15
2022-08-25T12:03:37.537Z,18.77
2022-08-25T12:06:36.434Z,24.60
2022-08-25T12:09:03.759Z,19.92
2022-08-25T12:11:41.619Z,21.45
2022-08-25T12:14:16.206Z,22.05
2022-08-25T12:16:44.358Z,23.15
2022-08-25T12:19:23.827Z,21.83
2022-08-25T12:21:51.137Z,21.63
2022-08-25T12:24:20.339Z,17.73
2022-08-25T12:26:51.124Z,18.73
2022-08-25T12:29:18.322Z,18.63
2022-08-25T12:31:52.381Z,22.13
2022-08-25T12:34:26.903Z,22.65
2022-08-25T12:37:02.815Z,22.00
2022-08-25T12:39:36.835Z,20.95
2022-08-25T12:42:05.335Z,26.75
2022-08-25T12:44:43.039Z,22.08
2022-08-25T12:47:34.202Z,21.60
2022-08-25T12:50:20.085Z,21.17
2022-08-25T12:52:47.277Z,17.63
2022-08-25T12:55:14.436Z,21.13
2022-08-25T12:57:42.623Z,26.75
2022-08-25T13:00:22.730Z,20.73
2022-08-25T13:02:51.945Z,18.00
2022-08-25T13:05:22.408Z,21.45
2022-08-25T13:08:08.036Z,21.23
2022-08-25T13:10:54.610Z,23.60
2022-08-25T13:13:24.611Z,21.02
2022-08-25T13:18:51.530Z,19.45
2022-08-25T13:21:24.568Z,20.55
2022-08-25T13:23:54.027Z,17.88
2022-08-25T13:26:35.466Z,18.90
2022-08-25T13:29:13.465Z,21.67
2022-08-25T13:31:56.628Z,22.02
2022-08-25T13:34:34.210Z,26.50
2022-08-25T13:37:24.756Z,20.48
2022-08-25T13:39:56.373Z,23.45
2022-08-25T13:42:27.429Z,25.23
2022-08-25T13:44:56.839Z,23.08
2022-08-25T13:47:45.212Z,19.38
2022-08-25T13:50:34.213Z,21.13
2022-08-25T13:53:04.129Z,17.70
2022-08-25T13:55:50.662Z,16.55
2022-08-25T13:58:24.473Z,19.50
2022-08-25T14:01:22.195Z,23.80
2022-08-25T14:04:22.240Z,18.98
2022-08-25T14:06:49.623Z,24.13
2022-08-25T14:09:17.948Z,14.48
2022-08-25T14:11:49.915Z,24.58
2022-08-25T14:14:23.925Z,20.95
2022-08-25T14:16:57.434Z,19.95
2022-08-25T14:19:25.100Z,19.05
2022-08-25T14:21:59.335Z,15.30
2022-08-25T14:24:27.145Z,19.08
2022-08-25T14:26:54.901Z,24.63
2022-08-25T14:29:22.318Z,24.70
2022-08-25T14:31:49.558Z,13.48
2022-08-25T14:34:20.927Z,18.38
2022-08-25T14:36:48.584Z,19.33
2022-08-25T14:39:15.943Z,21.65
2022-08-25T14:41:45.318Z,23.52
2022-08-25T14:44:20.522Z,17.92
2022-08-25T14:46:51.644Z,19.52
2022-08-25T14:49:24.684Z,24.50
2022-08-25T14:51:52.389Z,19.50
2022-08-25T14:54:19.815Z,19.92
2022-08-25T14:56:49.320Z,19.48
2022-08-25T14:59:16.528Z,18.40
2022-08-25T15:01:43.859Z,16.88
2022-08-25T15:04:15.926Z,19.88
2022-08-25T15:06:44.833Z,16.80
2022-08-25T15:09:12.810Z,19.50
2022-08-25T15:11:41.718Z,18.58
2022-08-25T15:14:10.799Z,20.95
2022-08-25T15:16:39.246Z,15.27
2022-08-25T15:19:07.469Z,21.50
2022-08-25T15:21:35.746Z,23.00
2022-08-25T15:24:03.226Z,15.43
2022-08-25T15:26:31.193Z,20.55
2022-08-25T15:28:59.561Z,23.65
2022-08-25T15:31:27.130Z,18.10
2022-08-25T15:33:54.711Z,20.90
2022-08-25T15:36:23.001Z,23.92
2022-08-25T15:38:52.619Z,20.98
2022-08-25T15:41:19.829Z,20.30
2022-08-25T15:43:47.075Z,19.73
2022-08-25T15:46:20.674Z,26.05
2022-08-25T15:48:47.979Z,22.38
2022-08-25T15:51:15.945Z,22.83
2022-08-25T15:53:43.159Z,28.38
2022-08-25T15:56:14.117Z,32.47
2022-08-25T15:58:46.393Z,24.00
2022-08-25T16:01:18.304Z,19.30
2022-08-25T16:03:46.575Z,20.88
2022-08-25T16:06:13.780Z,28.38
2022-08-25T16:08:41.116Z,25.20
2022-08-25T16:11:17.996Z,19.23
2022-08-25T16:13:45.697Z,26.67
2022-08-25T16:16:15.424Z,28.45
2022-08-25T16:18:43.749Z,23.52
2022-08-25T16:21:12.644Z,26.85
2022-08-25T16:23:40.184Z,28.27
2022-08-25T16:26:08.949Z,30.45
2022-08-25T16:28:37.578Z,26.15
2022-08-25T16:31:05.067Z,19.80
2022-08-25T16:33:33.735Z,23.77
2022-08-25T16:36:05.078Z,18.05
2022-08-25T16:38:34.182Z,25.02
2022-08-25T16:41:02.314Z,25.73
2022-08-25T16:43:31.809Z,22.15
2022-08-25T16:45:59.810Z,25.52
2022-08-25T16:48:28.509Z,22.75
2022-08-25T16:50:55.909Z,22.08
2022-08-25T16:53:41.954Z,21.60
2022-08-25T16:56:12.049Z,18.38
2022-08-25T16:58:39.849Z,18.70
2022-08-25T17:01:14.196Z,24.33
2022-08-25T17:03:44.147Z,19.73
2022-08-25T17:06:11.455Z,17.77
2022-08-25T17:08:39.811Z,17.30
2022-08-25T17:11:11.440Z,22.70
2022-08-25T17:13:40.472Z,19.85
2022-08-25T17:16:12.061Z,22.77
2022-08-25T17:18:41.938Z,19.13
2022-08-25T17:21:09.966Z,16.20
2022-08-25T17:23:43.518Z,19.45
2022-08-25T17:26:14.719Z,16.55
2022-08-25T17:28:42.083Z,18.48
2022-08-25T17:31:09.828Z,51.00
2022-08-25T17:33:37.088Z,35.28
2022-08-25T17:36:05.894Z,36.90
2022-08-25T17:38:33.782Z,24.15
2022-08-25T17:41:01.769Z,26.98
2022-08-25T17:43:29.436Z,29.92
2022-08-25T17:45:59.798Z,23.65
2022-08-25T17:48:27.066Z,30.05
2022-08-25T17:50:54.504Z,23.05
2022-08-25T17:53:21.774Z,29.58
2022-08-25T17:55:51.318Z,23.15
2022-08-25T17:58:18.910Z,27.67
2022-08-25T18:00:47.748Z,26.63
2022-08-25T18:03:15.136Z,23.13
2022-08-25T18:05:42.286Z,23.00
2022-08-25T18:08:10.549Z,27.75
2022-08-25T18:10:38.083Z,32.63
2022-08-25T18:13:05.296Z,34.55
2022-08-25T18:15:34.004Z,48.95
2022-08-25T18:18:04.553Z,44.10
2022-08-25T18:20:32.613Z,33.83
2022-08-25T18:22:59.883Z,43.85
2022-08-25T18:25:28.041Z,32.08
2022-08-25T18:27:56.880Z,36.08
2022-08-25T18:30:26.286Z,31.25
2022-08-25T18:32:54.702Z,28.60
2022-08-25T18:35:22.589Z,26.25
2022-08-25T18:38:12.436Z,27.23
2022-08-25T18:40:39.904Z,27.85
2022-08-25T18:43:08.485Z,26.52
2022-08-25T18:45:41.367Z,24.42
2022-08-25T18:48:08.627Z,24.90
2022-08-25T18:50:36.693Z,20.20
2022-08-25T18:53:04.078Z,25.45
2022-08-25T18:55:33.811Z,20.90
2022-08-25T18:58:01.073Z,24.33
2022-08-25T19:00:29.657Z,22.58
2022-08-25T19:02:57.594Z,23.30
2022-08-25T19:05:26.643Z,22.40
2022-08-25T19:07:53.904Z,22.45
2022-08-25T19:10:24.041Z,23.05
2022-08-25T19:12:52.189Z,22.70
2022-08-25T19:15:19.510Z,22.17
2022-08-25T19:17:53.190Z,25.80
2022-08-25T19:20:20.597Z,18.45
2022-08-25T19:22:47.799Z,20.42
2022-08-25T19:25:15.855Z,19.67
2022-08-25T19:27:43.530Z,21.65
2022-08-25T19:30:11.282Z,18.67
2022-08-25T19:32:42.415Z,19.90
2022-08-25T19:35:10.777Z,20.35
2022-08-25T19:37:37.967Z,26.30
2022-08-25T19:40:07.863Z,42.42
2022-08-25T19:42:38.147Z,30.45
2022-08-25T19:45:09.176Z,22.90
2022-08-25T19:47:37.623Z,24.77
2022-08-25T19:50:07.947Z,27.95
2022-08-25T19:52:36.857Z,19.40
2022-08-25T19:55:04.203Z,19.15
2022-08-25T19:57:42.382Z,23.00
2022-08-25T20:00:12.733Z,21.77
2022-08-25T20:02:40.545Z,20.60
2022-08-25T20:05:07.987Z,20.25
2022-08-25T20:07:35.665Z,16.42
2022-08-25T20:10:02.933Z,21.33
2022-08-25T20:12:30.579Z,22.85
2022-08-25T20:14:58.335Z,26.80
2022-08-25T20:17:28.351Z,24.27
2022-08-25T20:19:56.967Z,27.05
2022-08-25T20:22:26.395Z,19.75
2022-08-25T20:24:56.210Z,26.63
2022-08-25T20:27:26.473Z,26.15
2022-08-25T20:29:53.942Z,19.98
2022-08-25T20:32:21.241Z,18.17
2022-08-25T20:34:48.859Z,24.52
2022-08-25T20:37:17.208Z,23.17
2022-08-25T20:39:46.739Z,26.25
2022-08-25T20:42:14.461Z,19.83
2022-08-25T20:44:42.537Z,27.52
2022-08-25T20:47:12.882Z,20.13
2022-08-25T20:49:40.533Z,17.65
2022-08-25T20:52:09.046Z,21.58
2022-08-25T20:54:36.348Z,21.30
2022-08-25T20:57:03.636Z,22.58
2022-08-25T20:59:35.066Z,24.05
2022-08-25T21:02:02.377Z,21.27
2022-08-25T21:04:31.011Z,27.40
2022-08-25T21:07:00.199Z,28.10
2022-08-25T21:09:28.031Z,25.48
2022-08-25T21:11:55.778Z,22.15
2022-08-25T21:14:24.000Z,20.88
2022-08-25T21:16:51.595Z,17.02
2022-08-25T21:19:26.773Z,18.92
2022-08-25T21:21:59.965Z,15.77
2022-08-25T21:24:27.472Z,15.40
2022-08-25T21:26:55.924Z,15.63
2022-08-25T21:29:23.361Z,21.70
2022-08-25T21:31:51.622Z,23.50
2022-08-25T21:34:18.909Z,26.23
2022-08-25T21:36:46.192Z,23.90
2022-08-25T21:39:14.387Z,22.58
2022-08-25T21:41:44.165Z,20.40
2022-08-25T21:44:12.687Z,25.48
2022-08-25T21:46:41.088Z,25.73
2022-08-25T21:49:08.538Z,20.70
2022-08-25T21:51:40.596Z,25.77
2022-08-25T21:54:09.053Z,27.05
2022-08-25T21:56:37.957Z,25.73
2022-08-25T21:59:05.723Z,19.85
2022-08-25T22:01:33.606Z,20.38
2022-08-25T22:04:02.212Z,21.98
2022-08-25T22:06:29.594Z,25.38
2022-08-25T22:08:56.890Z,23.55
2022-08-25T22:11:24.794Z,24.83
2022-08-25T22:13:52.966Z,21.83
2022-08-25T22:16:22.060Z,19.38
2022-08-25T22:18:49.998Z,26.58
2022-08-25T22:21:22.190Z,27.60
2022-08-25T22:23:50.181Z,22.20
2022-08-25T22:26:17.444Z,23.02
2022-08-25T22:28:49.331Z,26.77
2022-08-25T22:31:20.682Z,20.15
2022-08-25T22:33:48.402Z,19.90
2022-08-25T22:36:19.310Z,23.83
2022-08-25T22:38:47.274Z,23.42
2022-08-25T22:41:18.868Z,22.30
2022-08-25T22:43:49.069Z,23.13
2022-08-25T22:46:17.153Z,20.75
2022-08-25T22:48:44.578Z,28.80
2022-08-25T22:51:17.923Z,25.60
2022-08-25T22:53:45.442Z,18.23
2022-08-25T22:56:12.935Z,21.73
2022-08-25T22:58:51.732Z,20.15
2022-08-25T23:01:19.875Z,25.50
2022-08-25T23:03:47.633Z,23.13
2022-08-25T23:06:24.690Z,22.80
2022-08-25T23:08:53.506Z,18.20
2022-08-25T23:11:20.994Z,23.58
2022-08-25T23:13:48.151Z,21.38
2022-08-25T23:16:15.815Z,16.58
2022-08-25T23:18:44.871Z,18.58
2022-08-25T23:21:35.002Z,16.05
2022-08-25T23:24:05.677Z,16.08
2022-08-25T23:26:33.545Z,21.33
2022-08-25T23:29:00.959Z,19.65
2022-08-25T23:31:30.523Z,15.38
2022-08-25T23:33:58.294Z,16.98
2022-08-25T23:36:25.560Z,17.75
2022-08-25T23:38:52.799Z,18.83
2022-08-25T23:41:22.542Z,13.57
2022-08-25T23:43:49.797Z,17.23
2022-08-25T23:46:18.001Z,17.30
2022-08-25T23:48:45.439Z,16.80
2022-08-25T23:51:12.826Z,14.93
2022-08-25T23:53:39.995Z,13.77
2022-08-25T23:56:07.685Z,16.85
2022-08-25T23:58:35.904Z,16.67
